Aeroporto :
LOGIN :

Iscrizione | Disclaimer

   EN    FR    IT 

 










Sommario :    VFR   VFR Marginale   IFR   IFR Intensivo   IFR Molto Intensivo
Visibilità : 
Base nubi : 
>= 8 km
>= 3000ft
5 / 8 km
1000 / 3000 ft
1500m / 5 km
500 / 1000 ft
800 / 1500m
200 / 500 ft
< 800m
< 200 ft
Simboli :   Temporali  Nebbia  Neve Forte  Precipitazioni Forti  Vento > 20 kt
SIGMETs :   Varie  Temporali  Ghiacco  Turbolenza  Onda orograficha  Ceneri Vulcaniche







- Altitudine del aeroporto : 129 ft
- Codice IATA : ZCN


ETHC - Celle

ULTIMO METAR :
  • 181320Z 25011G22KT 9999 FEW020 FEW030CB BKN040 08/03 Q1013 RESHGS BLU BLU+ TEMPO GRN

METARs OBSOLETI :
  • 181250Z 27010G22KT 9999 FEW023 FEW030CB SCT090 06/04 Q1013 RESHGS BLU+BLU+ TEMPO GRN
  • 181244Z 27013G24KT 7000 R26/1500U -SHRA SCT020CB SCT060 BKN090 05/03 Q1013 RESHGS WHT BLU+ TEMPO GRN
  • 181234Z 25020KT 3800 R26/1000D SHGS BKN020CB BKN100 06/01 Q1013 GRN BLU+ TEMPO GRN
  • 181220Z 24023KT 9999 -SHRA FEW023 SCT032CB BKN100 08/00 Q1012 BLU BLU+ TEMPO GRN
  • 181120Z 25016G26KT 9999 FEW023 SCT090 08/02 Q1012 BLU+BLU+ TEMPO GRN

TAF TAF ETHC
Valido dal 18 a 12 ore il 18 a 21 ore UTC


181123Z 1812/1821 25015G25KT 9999 NSW FEW020 SCT030
TEMPO 1812/1818 27018G30KT 4000 SHRA BKN015CB
PROB30 1812/1816 VRB20G35KT 2500 TSGS BKN010CB
Nessun NOTAM noto per questo aeroporto.



MetMap, La meteo Aeronautica in un colpo d'occhio ! - Copyright ORBIFLY Dicembre 2007 - Disclaimer

ORBIFLY MET'MAP TEAM :

Programmazione e sviluppo : Alexandra Zaïnal
Concezione e sviluppo : Baudouin d'Aumeries
Co-Programmazione e sviluppo : Marc-Olivier Méhu
Supporto tecnico e logistico : Manuel Goepfert
Aiuto per la traduzione : Arnaldo La Scala

Contatto : metmap@orbifly.com




FONTI E CREDITI :

   NOAA